createdAt,value
2023-02-28T00:00:10.950Z,1.30
2023-02-28T00:03:12.684Z,1.20
2023-02-28T00:06:14.498Z,1.57
2023-02-28T00:09:16.253Z,1.60
2023-02-28T00:12:17.925Z,1.47
2023-02-28T00:15:20.111Z,1.80
2023-02-28T00:18:21.785Z,1.60
2023-02-28T00:21:23.531Z,1.47
2023-02-28T00:24:25.224Z,1.50
2023-02-28T00:27:27.033Z,1.50
2023-02-28T00:30:28.739Z,1.53
2023-02-28T00:33:30.441Z,1.43
2023-02-28T00:36:32.140Z,1.53
2023-02-28T00:39:38.053Z,1.40
2023-02-28T00:42:40.148Z,1.33
2023-02-28T00:45:41.847Z,1.30
2023-02-28T00:48:43.600Z,1.40
2023-02-28T00:51:45.403Z,1.40
2023-02-28T00:54:47.056Z,1.30
2023-02-28T00:57:48.767Z,1.40
2023-02-28T01:00:51.278Z,1.20
2023-02-28T01:03:53.095Z,1.50
2023-02-28T01:06:54.729Z,1.30
2023-02-28T01:09:56.391Z,1.67
2023-02-28T01:12:58.390Z,1.10
2023-02-28T01:16:00.223Z,1.43
2023-02-28T01:19:01.982Z,1.40
2023-02-28T01:22:07.503Z,1.20
2023-02-28T01:25:09.386Z,1.30
2023-02-28T01:28:11.071Z,1.30
2023-02-28T01:31:13.383Z,1.60
2023-02-28T01:34:15.078Z,1.50
2023-02-28T01:37:16.718Z,1.70
2023-02-28T01:40:18.529Z,1.47
2023-02-28T01:43:53.646Z,1.50
2023-02-28T01:46:55.321Z,1.70
2023-02-28T01:49:57.379Z,1.50
2023-02-28T01:53:05.429Z,1.80
2023-02-28T01:56:09.391Z,1.90
2023-02-28T01:59:14.250Z,1.60
2023-02-28T02:02:18.624Z,1.50
2023-02-28T02:05:23.133Z,1.77
2023-02-28T02:08:27.956Z,1.50
2023-02-28T02:11:31.182Z,1.87
2023-02-28T02:14:56.765Z,1.67
2023-02-28T02:18:07.426Z,1.83
2023-02-28T02:21:27.594Z,1.90
2023-02-28T02:24:56.834Z,2.10
2023-02-28T02:28:36.452Z,1.47
2023-02-28T02:32:29.708Z,1.67
2023-02-28T02:35:54.824Z,1.90
2023-02-28T02:39:23.826Z,1.50
2023-02-28T02:43:03.539Z,1.80
2023-02-28T02:46:15.299Z,1.50
2023-02-28T02:49:26.830Z,1.60
2023-02-28T02:52:37.731Z,1.50
2023-02-28T02:55:44.457Z,1.67
2023-02-28T02:58:50.302Z,1.60
2023-02-28T03:01:57.910Z,1.93
2023-02-28T03:05:03.033Z,2.00
2023-02-28T03:08:06.409Z,2.10
2023-02-28T03:11:15.759Z,1.77
2023-02-28T03:14:31.999Z,1.50
2023-02-28T03:17:48.688Z,1.73
2023-02-28T03:20:58.035Z,1.50
2023-02-28T03:24:14.715Z,1.83
2023-02-28T03:27:36.502Z,1.50
2023-02-28T03:30:48.645Z,1.80
2023-02-28T03:34:08.345Z,1.90
2023-02-28T03:37:15.814Z,1.50
2023-02-28T03:40:22.582Z,1.83
2023-02-28T03:43:29.189Z,1.60
2023-02-28T03:46:36.186Z,1.50
2023-02-28T03:49:58.482Z,1.50
2023-02-28T03:53:15.077Z,1.60
2023-02-28T03:56:25.600Z,2.23
2023-02-28T03:59:40.713Z,1.50
2023-02-28T04:02:42.528Z,1.80
2023-02-28T04:05:55.465Z,1.60
2023-02-28T04:08:57.156Z,1.60
2023-02-28T04:11:58.947Z,1.70
2023-02-28T04:15:00.733Z,2.03
2023-02-28T04:18:02.388Z,1.70
2023-02-28T04:21:04.251Z,1.50
2023-02-28T04:24:07.037Z,3.20
2023-02-28T04:27:10.344Z,3.17
2023-02-28T04:30:13.168Z,1.57
2023-02-28T04:33:14.876Z,1.90
2023-02-28T04:36:18.622Z,1.77
2023-02-28T04:39:20.889Z,1.43
2023-02-28T04:42:22.634Z,1.50
2023-02-28T04:45:24.421Z,1.77
2023-02-28T04:48:28.881Z,1.40
2023-02-28T04:51:31.035Z,1.60
2023-02-28T04:54:32.930Z,1.50
2023-02-28T04:57:34.591Z,1.20
2023-02-28T05:00:36.715Z,1.57
2023-02-28T05:03:38.404Z,1.73
2023-02-28T05:06:40.074Z,1.77
2023-02-28T05:09:41.719Z,1.53
2023-02-28T05:12:43.568Z,1.60
2023-02-28T05:15:45.244Z,1.70
2023-02-28T05:18:47.598Z,1.70
2023-02-28T05:21:53.354Z,1.73
2023-02-28T05:24:55.042Z,1.87
2023-02-28T05:27:56.730Z,2.00
2023-02-28T05:30:58.445Z,2.03
2023-02-28T05:34:00.545Z,1.87
2023-02-28T05:37:02.351Z,1.90
2023-02-28T05:40:11.254Z,1.63
2023-02-28T05:43:13.495Z,1.97
2023-02-28T05:46:15.589Z,1.60
2023-02-28T05:49:17.274Z,2.00
2023-02-28T05:52:18.930Z,1.63
2023-02-28T05:55:20.632Z,1.70
2023-02-28T05:58:22.655Z,1.50
2023-02-28T06:01:49.268Z,1.70
2023-02-28T06:04:51.213Z,1.93
2023-02-28T06:07:52.984Z,1.67
2023-02-28T06:10:54.636Z,1.93
2023-02-28T06:13:58.320Z,1.63
2023-02-28T06:17:01.219Z,2.00
2023-02-28T06:20:03.782Z,1.60
2023-02-28T06:23:05.485Z,1.53
2023-02-28T06:26:07.176Z,1.80
2023-02-28T06:29:08.876Z,2.00
2023-02-28T06:32:10.810Z,1.90
2023-02-28T06:35:12.574Z,1.53
2023-02-28T06:38:14.459Z,1.73
2023-02-28T06:41:16.325Z,1.80
2023-02-28T06:44:18.757Z,2.13
2023-02-28T06:47:20.405Z,1.80
2023-02-28T06:50:22.080Z,1.57
2023-02-28T06:53:23.692Z,1.50
2023-02-28T06:56:25.340Z,1.90
2023-02-28T06:59:27.105Z,1.90
2023-02-28T07:02:29.141Z,2.20
2023-02-28T07:05:31.345Z,2.20
2023-02-28T07:08:33.787Z,2.37
2023-02-28T07:11:35.524Z,1.70
2023-02-28T07:14:38.439Z,2.17
2023-02-28T07:17:40.181Z,2.07
2023-02-28T07:20:42.088Z,1.70
2023-02-28T07:23:43.898Z,2.30
2023-02-28T07:26:45.581Z,2.33
2023-02-28T07:29:47.768Z,1.97
2023-02-28T07:32:49.461Z,2.10
2023-02-28T07:35:51.190Z,2.07
2023-02-28T07:38:52.978Z,2.17
2023-02-28T07:41:54.736Z,2.00
2023-02-28T07:44:56.636Z,2.77
2023-02-28T07:47:59.288Z,2.10
2023-02-28T07:51:01.737Z,2.70
2023-02-28T07:54:03.786Z,2.27
2023-02-28T07:57:05.434Z,2.23
2023-02-28T08:00:10.612Z,2.40
2023-02-28T08:03:15.336Z,2.50
2023-02-28T08:06:22.395Z,2.77
2023-02-28T08:09:24.027Z,2.40
2023-02-28T08:12:25.945Z,2.60
2023-02-28T08:15:27.862Z,2.93
2023-02-28T08:18:29.727Z,2.60
2023-02-28T08:21:31.992Z,2.80
2023-02-28T08:24:34.341Z,2.80
2023-02-28T08:27:37.112Z,2.90
2023-02-28T08:30:39.114Z,3.20
2023-02-28T08:33:41.273Z,3.17
2023-02-28T08:36:45.854Z,2.60
2023-02-28T08:39:47.771Z,3.27
2023-02-28T08:42:50.501Z,3.40
2023-02-28T08:45:53.542Z,3.13
2023-02-28T08:48:57.017Z,3.10
2023-02-28T08:51:58.776Z,3.67
2023-02-28T08:55:01.522Z,3.57
2023-02-28T08:58:03.227Z,3.27
2023-02-28T09:01:20.440Z,3.67
2023-02-28T09:04:25.125Z,3.40
2023-02-28T09:07:28.123Z,3.77
2023-02-28T09:10:30.225Z,3.30
2023-02-28T09:13:33.204Z,3.63
2023-02-28T09:16:35.553Z,3.40
2023-02-28T09:19:43.803Z,3.67
2023-02-28T09:22:46.087Z,3.03
2023-02-28T09:25:51.266Z,3.33
2023-02-28T09:28:53.905Z,2.97
2023-02-28T09:31:55.790Z,3.00
2023-02-28T09:34:57.458Z,3.10
2023-02-28T09:37:59.318Z,3.43
2023-02-28T09:41:12.448Z,2.93
2023-02-28T09:44:39.559Z,3.33
2023-02-28T09:47:46.143Z,2.97
2023-02-28T09:50:51.705Z,3.20
2023-02-28T09:54:01.365Z,3.20
2023-02-28T09:57:27.880Z,3.30
2023-02-28T10:00:41.944Z,3.80
2023-02-28T10:04:09.288Z,3.40
2023-02-28T10:07:46.071Z,3.40
2023-02-28T10:11:10.392Z,3.67
2023-02-28T10:14:20.980Z,3.80
2023-02-28T10:17:27.623Z,3.33
2023-02-28T10:20:40.419Z,3.57
2023-02-28T10:23:42.921Z,3.73
2023-02-28T10:26:46.336Z,3.90
2023-02-28T10:29:53.687Z,3.60
2023-02-28T10:32:55.526Z,3.67
2023-02-28T10:35:57.411Z,3.73
2023-02-28T10:39:00.858Z,3.20
2023-02-28T10:42:02.531Z,3.33
2023-02-28T10:45:15.455Z,3.73
2023-02-28T10:48:17.044Z,4.07
2023-02-28T10:51:37.145Z,3.70
2023-02-28T10:54:38.992Z,3.87
2023-02-28T10:57:40.698Z,3.63
2023-02-28T11:00:42.446Z,3.90
2023-02-28T11:03:44.421Z,4.00
2023-02-28T11:06:47.128Z,3.77
2023-02-28T11:10:07.146Z,3.93
2023-02-28T11:13:19.221Z,3.73
2023-02-28T11:16:21.780Z,3.87
2023-02-28T11:19:27.567Z,4.50
2023-02-28T11:22:33.219Z,3.67
2023-02-28T11:25:39.675Z,3.90
2023-02-28T11:28:42.959Z,4.03
2023-02-28T11:31:44.678Z,3.80
2023-02-28T11:35:00.792Z,3.70
2023-02-28T11:38:02.581Z,3.50
2023-02-28T11:41:48.614Z,3.87
2023-02-28T11:45:27.582Z,3.80
2023-02-28T11:49:01.169Z,4.13
2023-02-28T11:52:09.622Z,4.33
2023-02-28T11:55:18.010Z,3.50
2023-02-28T11:58:41.031Z,3.77
2023-02-28T12:02:01.311Z,3.60
2023-02-28T12:05:11.488Z,3.67
2023-02-28T12:08:27.143Z,3.73
2023-02-28T12:11:55.160Z,3.67
2023-02-28T12:15:34.481Z,3.73
2023-02-28T12:19:13.207Z,3.63
2023-02-28T12:22:40.759Z,3.73
2023-02-28T12:26:01.396Z,3.97
2023-02-28T12:29:47.065Z,3.37
2023-02-28T12:33:02.561Z,2.97
2023-02-28T12:36:16.177Z,4.37
2023-02-28T12:39:27.694Z,3.13
2023-02-28T12:42:39.573Z,3.73
2023-02-28T12:45:49.631Z,3.33
2023-02-28T12:48:57.962Z,3.60
2023-02-28T12:52:05.700Z,3.70
2023-02-28T12:55:18.497Z,3.60
2023-02-28T12:58:38.885Z,3.60
2023-02-28T13:02:01.345Z,3.70
2023-02-28T13:05:19.102Z,3.33
2023-02-28T13:08:32.930Z,3.93
2023-02-28T13:11:42.267Z,3.97
2023-02-28T13:14:44.041Z,4.03
2023-02-28T13:18:18.508Z,3.60
2023-02-28T13:21:56.618Z,3.60
2023-02-28T13:25:24.401Z,3.43
2023-02-28T13:33:29.084Z,3.67
2023-02-28T13:36:33.133Z,3.83
2023-02-28T13:39:36.372Z,3.47
2023-02-28T13:47:29.333Z,3.77
2023-02-28T13:50:41.054Z,3.67
2023-02-28T13:53:57.809Z,3.90
2023-02-28T13:57:43.655Z,4.10
2023-02-28T14:01:03.288Z,4.07
2023-02-28T14:04:37.315Z,3.97
2023-02-28T14:08:09.168Z,4.27
2023-02-28T14:11:32.455Z,3.73
2023-02-28T14:14:37.086Z,4.23
2023-02-28T14:17:38.961Z,3.93
2023-02-28T14:21:03.416Z,4.30
2023-02-28T14:24:07.982Z,4.00
2023-02-28T14:27:20.742Z,3.70
2023-02-28T14:30:39.199Z,4.73
2023-02-28T14:34:26.654Z,4.10
2023-02-28T14:38:04.763Z,4.57
2023-02-28T14:41:30.853Z,4.53
2023-02-28T14:44:32.868Z,4.77
2023-02-28T14:47:37.024Z,4.33
2023-02-28T14:50:39.121Z,4.40
2023-02-28T14:53:41.111Z,5.27
2023-02-28T14:56:43.057Z,5.00
2023-02-28T15:00:23.149Z,5.60
2023-02-28T15:03:28.633Z,4.80
2023-02-28T15:07:08.262Z,4.53
2023-02-28T15:10:27.106Z,4.87
2023-02-28T15:13:51.951Z,4.90
2023-02-28T15:17:31.017Z,5.10
2023-02-28T15:20:34.006Z,4.97
2023-02-28T15:23:38.476Z,5.10
2023-02-28T15:26:51.845Z,5.50
2023-02-28T15:30:17.839Z,5.00
2023-02-28T15:33:53.304Z,4.87
2023-02-28T15:36:55.161Z,4.87
2023-02-28T15:40:24.617Z,4.77
2023-02-28T15:43:40.908Z,5.40
2023-02-28T15:47:22.257Z,5.53
2023-02-28T15:50:24.090Z,7.30
2023-02-28T15:53:31.120Z,6.43
2023-02-28T15:56:36.184Z,5.30
2023-02-28T15:59:38.705Z,5.33
2023-02-28T16:02:40.773Z,6.00
2023-02-28T16:05:42.629Z,5.60
2023-02-28T16:08:46.286Z,5.43
2023-02-28T16:11:53.922Z,6.00
2023-02-28T16:14:58.471Z,5.30
2023-02-28T16:18:00.157Z,5.00
2023-02-28T16:21:01.815Z,5.00
2023-02-28T16:24:03.610Z,5.40
2023-02-28T16:27:05.942Z,5.33
2023-02-28T16:30:16.476Z,5.10
2023-02-28T16:33:18.219Z,5.40
2023-02-28T16:36:23.092Z,5.20
2023-02-28T16:39:25.020Z,5.50
2023-02-28T16:42:29.176Z,5.20
2023-02-28T16:45:30.869Z,6.03
2023-02-28T16:48:32.889Z,5.90
2023-02-28T16:51:35.947Z,5.23
2023-02-28T16:54:37.941Z,5.50
2023-02-28T16:57:40.817Z,5.97
2023-02-28T17:00:42.756Z,5.27
2023-02-28T17:03:44.558Z,5.50
2023-02-28T17:06:46.816Z,5.80
2023-02-28T17:09:48.549Z,5.50
2023-02-28T17:12:50.833Z,5.27
2023-02-28T17:15:52.638Z,5.60
2023-02-28T17:18:57.606Z,5.83
2023-02-28T17:21:59.281Z,5.67
2023-02-28T17:25:00.932Z,5.60
2023-02-28T17:28:02.626Z,5.57
2023-02-28T17:31:04.431Z,6.17
2023-02-28T17:34:06.116Z,6.00
2023-02-28T17:37:09.892Z,6.00
2023-02-28T17:40:17.889Z,5.70
2023-02-28T17:43:19.536Z,6.20
2023-02-28T17:46:24.048Z,6.37
2023-02-28T17:49:25.822Z,5.90
2023-02-28T17:52:31.981Z,5.93
2023-02-28T17:55:35.351Z,6.30
2023-02-28T17:58:37.008Z,6.20
2023-02-28T18:01:38.875Z,6.33
2023-02-28T18:04:41.033Z,6.60
2023-02-28T18:07:42.884Z,5.73
2023-02-28T18:10:44.654Z,6.43
2023-02-28T18:13:55.443Z,6.90
2023-02-28T18:16:57.735Z,6.17
2023-02-28T18:20:00.297Z,5.80
2023-02-28T18:23:02.821Z,6.80
2023-02-28T18:26:08.515Z,6.40
2023-02-28T18:29:17.989Z,6.40
2023-02-28T18:32:19.751Z,6.70
2023-02-28T18:35:35.903Z,6.77
2023-02-28T18:38:39.813Z,6.40
2023-02-28T18:41:44.474Z,6.27
2023-02-28T18:44:46.276Z,6.03
2023-02-28T18:47:48.066Z,5.87
2023-02-28T18:50:53.124Z,6.83
2023-02-28T18:53:55.043Z,6.57
2023-02-28T18:56:56.804Z,6.23
2023-02-28T18:59:58.691Z,5.93
2023-02-28T19:03:00.539Z,6.50
2023-02-28T19:06:03.323Z,6.53
2023-02-28T19:09:05.576Z,6.33
2023-02-28T19:12:07.582Z,6.27
2023-02-28T19:15:10.673Z,6.50
2023-02-28T19:18:13.282Z,6.63
2023-02-28T19:21:17.677Z,6.20
2023-02-28T19:24:20.417Z,6.20
2023-02-28T19:27:22.154Z,6.27
2023-02-28T19:30:24.082Z,6.60
2023-02-28T19:33:25.861Z,6.50
2023-02-28T19:36:28.865Z,6.40
2023-02-28T19:39:40.940Z,6.73
2023-02-28T19:42:42.646Z,6.60
2023-02-28T19:45:44.416Z,5.63
2023-02-28T19:48:46.365Z,5.90
2023-02-28T19:51:48.122Z,6.90
2023-02-28T19:54:49.997Z,6.67
2023-02-28T19:57:51.688Z,6.30
2023-02-28T20:00:53.804Z,6.83
2023-02-28T20:03:55.670Z,6.70
2023-02-28T20:06:58.154Z,7.00
2023-02-28T20:09:59.900Z,6.53
2023-02-28T20:13:01.702Z,6.80
2023-02-28T20:16:09.687Z,7.23
2023-02-28T20:19:11.825Z,7.33
2023-02-28T20:22:13.650Z,6.63
2023-02-28T20:25:15.662Z,6.23
2023-02-28T20:28:20.774Z,7.63
2023-02-28T20:31:25.535Z,9.00
2023-02-28T20:34:27.466Z,7.50
2023-02-28T20:37:29.122Z,7.00
2023-02-28T20:40:30.816Z,6.60
2023-02-28T20:43:32.569Z,6.47
2023-02-28T20:46:35.626Z,6.70
2023-02-28T20:49:37.450Z,7.27
2023-02-28T20:52:39.287Z,6.87
2023-02-28T20:55:41.011Z,7.33
2023-02-28T21:03:05.457Z,6.63
2023-02-28T21:06:10.178Z,6.90
2023-02-28T21:09:13.355Z,7.30
2023-02-28T21:12:15.071Z,7.10
2023-02-28T21:15:17.780Z,7.50
2023-02-28T21:18:19.664Z,6.43
2023-02-28T21:21:24.243Z,6.77
2023-02-28T21:24:26.011Z,7.37
2023-02-28T21:27:27.749Z,8.03
2023-02-28T21:30:39.595Z,6.50
2023-02-28T21:33:41.844Z,7.27
2023-02-28T21:36:47.479Z,7.07
2023-02-28T21:39:49.286Z,7.30
2023-02-28T21:42:51.076Z,7.13
2023-02-28T21:45:52.814Z,6.73
2023-02-28T21:48:55.727Z,6.43
2023-02-28T21:51:57.759Z,7.53
2023-02-28T21:55:07.838Z,7.13
2023-02-28T21:58:25.029Z,7.17
2023-02-28T22:01:40.977Z,7.27
2023-02-28T22:04:49.172Z,6.83
2023-02-28T22:07:50.846Z,7.00
2023-02-28T22:11:29.530Z,6.57
2023-02-28T22:14:35.225Z,6.67
2023-02-28T22:17:53.291Z,6.97
2023-02-28T22:21:17.684Z,7.00
2023-02-28T22:24:23.233Z,6.80
2023-02-28T22:27:24.847Z,6.43
2023-02-28T22:30:26.578Z,6.57
2023-02-28T22:33:28.378Z,6.53
2023-02-28T22:36:30.886Z,6.27
2023-02-28T22:39:33.035Z,6.43
2023-02-28T22:42:34.786Z,6.47
2023-02-28T22:45:37.897Z,6.23
2023-02-28T22:48:39.990Z,6.00
2023-02-28T22:51:41.868Z,5.80
2023-02-28T22:54:43.665Z,6.23
2023-02-28T22:57:45.354Z,6.47
2023-02-28T23:00:47.164Z,6.10
2023-02-28T23:03:48.942Z,6.27
2023-02-28T23:06:50.746Z,7.27
2023-02-28T23:09:54.552Z,7.20
2023-02-28T23:12:56.285Z,6.40
2023-02-28T23:15:57.964Z,6.10
2023-02-28T23:19:01.747Z,6.00
2023-02-28T23:22:04.649Z,5.93
2023-02-28T23:25:07.218Z,5.87
2023-02-28T23:28:10.246Z,6.17
2023-02-28T23:31:11.901Z,7.27
2023-02-28T23:34:14.624Z,6.30
2023-02-28T23:37:16.285Z,5.73
2023-02-28T23:40:22.328Z,6.97
2023-02-28T23:43:24.099Z,6.03
2023-02-28T23:46:26.414Z,6.07
2023-02-28T23:49:28.071Z,6.33
2023-02-28T23:52:30.018Z,6.30
2023-02-28T23:55:31.672Z,6.20
2023-02-28T23:58:34.194Z,6.03
